createdAt,value
2024-05-09T00:00:35.773Z,8.18
2024-05-09T00:03:10.400Z,7.50
2024-05-09T00:05:38.725Z,9.77
2024-05-09T00:08:06.563Z,8.73
2024-05-09T00:10:37.128Z,9.20
2024-05-09T00:13:07.059Z,9.32
2024-05-09T00:15:34.726Z,8.75
2024-05-09T00:18:02.142Z,7.13
2024-05-09T00:20:36.977Z,8.65
2024-05-09T00:23:07.485Z,9.63
2024-05-09T00:25:34.875Z,8.77
2024-05-09T00:28:01.667Z,7.88
2024-05-09T00:30:34.129Z,8.18
2024-05-09T00:33:04.642Z,8.23
2024-05-09T00:35:32.278Z,7.70
2024-05-09T00:37:59.082Z,10.02
2024-05-09T00:40:35.528Z,8.52
2024-05-09T00:43:06.922Z,8.77
2024-05-09T00:45:34.652Z,8.10
2024-05-09T00:48:04.835Z,9.13
2024-05-09T00:50:36.611Z,8.02
2024-05-09T00:53:06.338Z,9.48
2024-05-09T00:55:34.434Z,9.55
2024-05-09T00:58:01.957Z,8.35
2024-05-09T01:00:35.971Z,7.63
2024-05-09T01:03:06.441Z,7.97
2024-05-09T01:05:34.632Z,8.52
2024-05-09T01:08:02.339Z,9.43
2024-05-09T01:10:34.322Z,9.50
2024-05-09T01:13:03.788Z,9.60
2024-05-09T01:15:30.511Z,7.85
2024-05-09T01:17:58.091Z,8.20
2024-05-09T01:20:36.489Z,8.57
2024-05-09T01:23:09.381Z,7.90
2024-05-09T01:25:36.411Z,7.87
2024-05-09T01:28:03.009Z,9.82
2024-05-09T01:30:34.769Z,9.20
2024-05-09T01:33:04.853Z,11.73
2024-05-09T01:35:32.115Z,8.90
2024-05-09T01:37:58.706Z,7.43
2024-05-09T01:40:35.396Z,8.75
2024-05-09T01:43:04.913Z,8.85
2024-05-09T01:45:31.515Z,7.88
2024-05-09T01:47:58.673Z,8.95
2024-05-09T01:50:37.184Z,7.67
2024-05-09T01:53:07.531Z,6.15
2024-05-09T01:55:34.267Z,6.40
2024-05-09T01:58:00.888Z,7.55
2024-05-09T02:00:37.409Z,7.35
2024-05-09T02:03:11.273Z,7.57
2024-05-09T02:05:40.281Z,7.35
2024-05-09T02:08:07.484Z,7.95
2024-05-09T02:10:34.098Z,8.52
2024-05-09T02:13:00.949Z,7.53
2024-05-09T02:15:27.711Z,9.47
2024-05-09T02:17:54.492Z,9.35
2024-05-09T02:20:30.226Z,8.65
2024-05-09T02:23:03.589Z,10.27
2024-05-09T02:25:30.545Z,9.65
2024-05-09T02:27:57.248Z,10.40
2024-05-09T02:30:31.031Z,10.43
2024-05-09T02:33:05.942Z,9.05
2024-05-09T02:35:32.931Z,9.43
2024-05-09T02:37:59.824Z,9.55
2024-05-09T02:40:35.467Z,7.93
2024-05-09T02:43:04.911Z,8.65
2024-05-09T02:45:31.460Z,8.02
2024-05-09T02:47:58.299Z,6.28
2024-05-09T02:50:33.688Z,6.28
2024-05-09T02:53:05.088Z,7.10
2024-05-09T02:55:31.914Z,8.18
2024-05-09T02:57:58.469Z,7.57
2024-05-09T03:00:34.253Z,6.55
2024-05-09T03:03:06.117Z,9.57
2024-05-09T03:05:33.394Z,7.60
2024-05-09T03:08:00.101Z,8.95
2024-05-09T03:10:29.096Z,9.55
2024-05-09T03:13:05.954Z,7.70
2024-05-09T03:15:32.992Z,7.75
2024-05-09T03:18:00.914Z,6.87
2024-05-09T03:20:33.364Z,7.40
2024-05-09T03:23:02.293Z,6.57
2024-05-09T03:25:28.995Z,6.03
2024-05-09T03:27:55.675Z,6.65
2024-05-09T03:30:31.105Z,6.70
2024-05-09T03:33:10.505Z,5.22
2024-05-09T03:35:37.753Z,6.43
2024-05-09T03:38:04.595Z,6.78
2024-05-09T03:40:31.468Z,6.57
2024-05-09T03:42:58.751Z,7.77
2024-05-09T03:45:25.475Z,8.80
2024-05-09T03:47:52.673Z,7.88
2024-05-09T03:50:29.435Z,8.13
2024-05-09T03:53:01.003Z,5.57
2024-05-09T03:55:27.855Z,9.87
2024-05-09T03:57:54.405Z,8.13
2024-05-09T04:00:30.503Z,7.20
2024-05-09T04:03:02.859Z,6.80
2024-05-09T04:05:30.779Z,6.13
2024-05-09T04:07:57.769Z,7.47
2024-05-09T04:10:31.235Z,7.40
2024-05-09T04:13:00.491Z,7.30
2024-05-09T04:15:27.039Z,6.47
2024-05-09T04:17:53.772Z,7.32
2024-05-09T04:20:29.377Z,7.93
2024-05-09T04:23:04.239Z,9.25
2024-05-09T04:25:32.025Z,7.80
2024-05-09T04:27:58.563Z,11.77
2024-05-09T04:30:34.588Z,8.77
2024-05-09T04:33:06.417Z,8.67
2024-05-09T04:35:33.815Z,7.47
2024-05-09T04:38:00.592Z,9.80
2024-05-09T04:40:33.179Z,8.20
2024-05-09T04:43:02.875Z,11.55
2024-05-09T04:45:29.399Z,10.03
2024-05-09T04:47:56.067Z,12.32
2024-05-09T04:50:30.297Z,11.43
2024-05-09T04:53:03.183Z,10.70
2024-05-09T04:55:29.904Z,11.07
2024-05-09T04:57:56.414Z,10.40
2024-05-09T05:00:32.310Z,9.70
2024-05-09T05:03:08.391Z,9.20
2024-05-09T05:05:42.288Z,10.15
2024-05-09T05:08:17.770Z,10.60
2024-05-09T05:10:46.057Z,9.43
2024-05-09T05:13:20.776Z,11.73
2024-05-09T05:15:57.367Z,11.10
2024-05-09T05:18:26.119Z,13.82
2024-05-09T05:20:53.094Z,13.73
2024-05-09T05:23:20.657Z,11.57
2024-05-09T05:25:48.774Z,12.73
2024-05-09T05:28:16.331Z,13.52
2024-05-09T05:30:43.178Z,11.35
2024-05-09T05:33:11.095Z,12.95
2024-05-09T05:35:38.049Z,11.50
2024-05-09T05:38:06.296Z,11.38
2024-05-09T05:40:37.019Z,10.70
2024-05-09T05:43:08.861Z,13.57
2024-05-09T05:45:35.750Z,11.95
2024-05-09T05:48:07.344Z,13.13
2024-05-09T05:50:37.198Z,11.68
2024-05-09T05:53:08.859Z,15.70
2024-05-09T05:55:36.711Z,12.98
2024-05-09T05:58:03.406Z,13.18
2024-05-09T06:00:37.564Z,13.33
2024-05-09T06:03:06.494Z,15.02
2024-05-09T06:05:33.284Z,14.65
2024-05-09T06:08:00.246Z,15.38
2024-05-09T06:10:36.971Z,14.13
2024-05-09T06:13:06.265Z,13.40
2024-05-09T06:15:32.795Z,14.27
2024-05-09T06:17:59.576Z,16.05
2024-05-09T06:20:34.730Z,16.52
2024-05-09T06:23:04.139Z,15.55
2024-05-09T06:25:30.758Z,14.40
2024-05-09T06:27:57.278Z,14.98
2024-05-09T06:30:35.050Z,14.30
2024-05-09T06:33:06.968Z,15.85
2024-05-09T06:35:34.217Z,16.50
2024-05-09T06:38:01.214Z,17.90
2024-05-09T06:40:36.294Z,17.73
2024-05-09T06:43:10.160Z,16.58
2024-05-09T06:45:37.029Z,14.70
2024-05-09T06:48:03.961Z,13.43
2024-05-09T06:50:36.853Z,14.30
2024-05-09T06:53:04.907Z,15.77
2024-05-09T06:55:31.512Z,15.95
2024-05-09T06:57:58.030Z,14.50
2024-05-09T07:00:30.897Z,14.50
2024-05-09T07:03:16.675Z,14.20
2024-05-09T07:05:45.850Z,14.50
2024-05-09T07:08:13.175Z,13.73
2024-05-09T07:10:41.078Z,13.27
2024-05-09T07:13:09.748Z,15.25
2024-05-09T07:15:36.283Z,11.73
2024-05-09T07:18:17.808Z,13.18
2024-05-09T07:20:45.982Z,13.70
2024-05-09T07:23:13.264Z,13.25
2024-05-09T07:25:41.260Z,13.98
2024-05-09T07:28:18.699Z,13.00
2024-05-09T07:30:45.701Z,13.40
2024-05-09T07:33:20.200Z,11.43
2024-05-09T07:35:48.164Z,12.38
2024-05-09T07:38:14.944Z,13.20
2024-05-09T07:40:41.746Z,16.00
2024-05-09T07:43:11.538Z,14.15
2024-05-09T07:45:48.505Z,15.05
2024-05-09T07:52:37.535Z,12.23
2024-05-09T07:53:47.889Z,15.00
2024-05-09T07:56:18.590Z,10.88
2024-05-09T07:58:46.150Z,12.18
2024-05-09T08:01:12.984Z,10.95
2024-05-09T08:03:39.859Z,11.90
2024-05-09T08:06:06.477Z,10.37
2024-05-09T08:08:32.978Z,11.05
2024-05-09T08:10:59.535Z,8.32
2024-05-09T08:13:26.066Z,10.85
2024-05-09T08:15:53.690Z,10.88
2024-05-09T08:18:20.417Z,10.57
2024-05-09T08:20:48.845Z,7.28
2024-05-09T08:23:15.646Z,7.88
2024-05-09T08:25:42.333Z,7.70
2024-05-09T08:28:09.251Z,7.97
2024-05-09T08:30:37.585Z,7.77
2024-05-09T08:33:06.708Z,9.10
2024-05-09T08:35:34.562Z,9.75
2024-05-09T08:38:03.167Z,9.90
2024-05-09T08:40:35.441Z,10.57
2024-05-09T08:43:07.653Z,9.67
2024-05-09T08:45:35.814Z,10.88
2024-05-09T08:48:05.857Z,14.07
2024-05-09T08:50:38.701Z,10.80
2024-05-09T08:53:07.188Z,10.77
2024-05-09T08:55:33.929Z,8.73
2024-05-09T08:58:02.259Z,10.82
2024-05-09T09:00:36.516Z,10.30
2024-05-09T09:03:08.978Z,10.40
2024-05-09T09:05:39.540Z,10.10
2024-05-09T09:08:08.245Z,9.17
2024-05-09T09:10:35.602Z,11.55
2024-05-09T09:13:04.657Z,11.27
2024-05-09T09:15:31.870Z,9.40
2024-05-09T09:18:00.436Z,8.32
2024-05-09T09:20:35.325Z,10.00
2024-05-09T09:23:03.542Z,9.07
2024-05-09T09:25:30.525Z,9.57
2024-05-09T09:27:58.537Z,9.65
2024-05-09T09:30:35.240Z,10.13
2024-05-09T09:33:05.855Z,9.00
2024-05-09T09:35:32.838Z,8.55
2024-05-09T09:38:03.131Z,10.00
2024-05-09T09:40:38.631Z,9.90
2024-05-09T09:43:30.483Z,10.57
2024-05-09T09:45:59.714Z,10.73
2024-05-09T09:48:27.308Z,9.05
2024-05-09T09:50:55.253Z,9.45
2024-05-09T09:53:23.247Z,10.38
2024-05-09T09:55:52.158Z,10.25
2024-05-09T09:58:19.254Z,9.27
2024-05-09T10:00:46.168Z,10.07
2024-05-09T10:03:13.415Z,9.77
2024-05-09T10:05:42.966Z,10.27
2024-05-09T10:08:12.779Z,11.48
2024-05-09T10:10:40.132Z,8.13
2024-05-09T10:13:08.344Z,7.90
2024-05-09T10:15:48.478Z,7.95
2024-05-09T10:18:15.543Z,8.90
2024-05-09T10:20:46.430Z,8.65
2024-05-09T10:23:43.814Z,6.70
2024-05-09T10:26:10.419Z,7.38
2024-05-09T10:28:42.632Z,6.53
2024-05-09T10:31:14.781Z,8.05
2024-05-09T10:33:50.868Z,6.57
2024-05-09T10:36:21.996Z,11.07
2024-05-09T10:38:50.032Z,9.45
2024-05-09T10:41:17.485Z,7.70
2024-05-09T10:43:44.169Z,7.05
2024-05-09T10:46:11.613Z,7.72
2024-05-09T10:48:39.588Z,6.43
2024-05-09T10:51:06.407Z,7.72
2024-05-09T10:53:40.449Z,8.73
2024-05-09T10:56:07.198Z,8.32
2024-05-09T10:58:33.703Z,6.30
2024-05-09T11:01:02.356Z,5.53
2024-05-09T11:03:31.067Z,8.75
2024-05-09T11:05:57.941Z,9.48
2024-05-09T11:08:24.986Z,9.93
2024-05-09T11:10:52.853Z,9.68
2024-05-09T11:13:30.257Z,7.70
2024-05-09T11:15:57.354Z,9.45
2024-05-09T11:18:26.769Z,8.05
2024-05-09T11:20:56.249Z,9.63
2024-05-09T11:23:30.072Z,9.43
2024-05-09T11:25:58.347Z,8.43
2024-05-09T11:28:26.962Z,8.88
2024-05-09T11:31:05.264Z,6.72
2024-05-09T11:33:31.990Z,9.10
2024-05-09T11:35:58.728Z,7.78
2024-05-09T11:38:25.299Z,9.80
2024-05-09T11:40:51.894Z,9.63
2024-05-09T11:43:18.592Z,8.85
2024-05-09T11:45:45.184Z,8.98
2024-05-09T11:48:11.970Z,8.60
2024-05-09T11:50:39.319Z,9.77
2024-05-09T11:53:06.635Z,10.25
2024-05-09T11:55:36.372Z,8.73
2024-05-09T11:58:04.241Z,10.30
2024-05-09T12:00:36.667Z,10.05
2024-05-09T12:03:05.637Z,9.63
2024-05-09T12:05:34.014Z,11.43
2024-05-09T12:08:01.401Z,10.98
2024-05-09T12:10:32.931Z,9.68
2024-05-09T12:13:02.221Z,9.88
2024-05-09T12:15:29.022Z,9.70
2024-05-09T12:17:58.340Z,9.95
2024-05-09T12:20:35.135Z,9.88
2024-05-09T12:23:05.187Z,10.63
2024-05-09T12:25:34.036Z,9.63
2024-05-09T12:28:01.093Z,9.77
2024-05-09T12:30:36.123Z,9.48
2024-05-09T12:33:07.958Z,10.15
2024-05-09T12:35:34.860Z,9.55
2024-05-09T12:38:01.518Z,12.60
2024-05-09T12:40:35.558Z,11.20
2024-05-09T12:43:06.589Z,10.90
2024-05-09T12:45:33.618Z,10.80
2024-05-09T12:48:00.718Z,12.10
2024-05-09T12:50:32.543Z,11.82
2024-05-09T12:53:01.452Z,10.53
2024-05-09T12:55:29.832Z,10.20
2024-05-09T12:57:58.947Z,11.70
2024-05-09T13:00:31.660Z,11.82
2024-05-09T13:03:01.101Z,14.30
2024-05-09T13:05:28.291Z,10.10
2024-05-09T13:07:56.692Z,12.88
2024-05-09T13:10:31.049Z,13.05
2024-05-09T13:13:00.268Z,9.57
2024-05-09T13:15:27.496Z,10.35
2024-05-09T13:17:55.813Z,11.70
2024-05-09T13:20:31.212Z,11.77
2024-05-09T13:23:01.720Z,11.75
2024-05-09T13:25:28.381Z,11.27
2024-05-09T13:27:55.359Z,10.52
2024-05-09T13:30:29.495Z,12.87
2024-05-09T13:33:05.164Z,10.55
2024-05-09T13:35:32.252Z,13.88
2024-05-09T13:37:59.065Z,11.02
2024-05-09T13:40:32.690Z,12.15
2024-05-09T13:43:02.072Z,10.70
2024-05-09T13:45:29.120Z,10.13
2024-05-09T13:47:55.928Z,10.95
2024-05-09T13:50:31.298Z,14.10
2024-05-09T13:53:02.083Z,11.95
2024-05-09T13:55:28.751Z,10.20
2024-05-09T13:57:55.719Z,11.60
2024-05-09T14:00:32.245Z,12.02
2024-05-09T14:03:09.132Z,9.50
2024-05-09T14:05:36.038Z,14.45
2024-05-09T14:08:03.265Z,11.20
2024-05-09T14:10:31.861Z,11.48
2024-05-09T14:13:00.047Z,15.05
2024-05-09T14:15:26.994Z,11.45
2024-05-09T14:17:54.503Z,10.98
2024-05-09T14:20:30.324Z,11.17
2024-05-09T14:22:59.284Z,11.25
2024-05-09T14:25:28.282Z,10.70
2024-05-09T14:27:55.366Z,13.57
2024-05-09T14:30:30.602Z,11.10
2024-05-09T14:33:03.659Z,12.07
2024-05-09T14:35:30.403Z,10.60
2024-05-09T14:37:57.022Z,12.73
2024-05-09T14:42:53.075Z,12.45
2024-05-09T14:45:19.662Z,11.20
2024-05-09T14:47:46.426Z,11.80
2024-05-09T14:50:19.598Z,11.88
2024-05-09T14:52:54.054Z,11.25
2024-05-09T14:55:20.600Z,11.63
2024-05-09T14:57:47.247Z,13.73
2024-05-09T15:00:21.096Z,10.48
2024-05-09T15:02:52.948Z,11.75
2024-05-09T15:05:19.679Z,12.55
2024-05-09T15:07:46.344Z,11.77
2024-05-09T15:10:20.380Z,10.77
2024-05-09T15:12:50.577Z,11.50
2024-05-09T15:15:17.714Z,13.02
2024-05-09T15:17:44.865Z,10.95
2024-05-09T15:20:17.141Z,13.25
2024-05-09T15:22:46.908Z,11.37
2024-05-09T15:25:13.850Z,11.52
2024-05-09T15:27:40.584Z,10.70
2024-05-09T15:30:10.699Z,11.02
2024-05-09T15:32:37.632Z,10.95
2024-05-09T15:35:05.463Z,12.10
2024-05-09T15:37:32.377Z,13.57
2024-05-09T15:39:59.027Z,13.65
2024-05-09T15:42:25.594Z,16.45
2024-05-09T15:44:53.045Z,14.95
2024-05-09T15:47:20.185Z,17.23
2024-05-09T15:49:47.673Z,17.42
2024-05-09T15:52:17.918Z,18.27
2024-05-09T15:54:44.560Z,15.48
2024-05-09T15:57:11.972Z,15.20
2024-05-09T15:59:38.601Z,15.03
2024-05-09T16:02:05.907Z,19.10
2024-05-09T16:04:32.706Z,12.57
2024-05-09T16:06:59.459Z,14.70
2024-05-09T16:09:26.115Z,14.52
2024-05-09T16:11:52.830Z,13.63
2024-05-09T16:14:19.444Z,19.20
2024-05-09T16:16:46.521Z,17.73
2024-05-09T16:19:13.642Z,17.65
2024-05-09T16:21:40.327Z,16.50
2024-05-09T16:24:06.945Z,16.50
2024-05-09T16:26:33.602Z,16.23
2024-05-09T16:29:00.140Z,16.98
2024-05-09T16:31:26.924Z,16.77
2024-05-09T16:33:53.808Z,15.73
2024-05-09T16:36:20.584Z,15.47
2024-05-09T16:38:47.136Z,19.35
2024-05-09T16:41:15.408Z,17.50
2024-05-09T16:43:41.953Z,22.50
2024-05-09T16:46:08.981Z,21.80
2024-05-09T16:48:36.621Z,17.70
2024-05-09T16:51:03.288Z,18.88
2024-05-09T16:53:29.818Z,18.00
2024-05-09T16:55:56.405Z,17.98
2024-05-09T16:58:23.651Z,19.25
2024-05-09T17:00:50.826Z,21.40
2024-05-09T17:03:17.718Z,17.63
2024-05-09T17:05:46.913Z,18.25
2024-05-09T17:08:16.264Z,19.23
2024-05-09T17:10:42.999Z,19.63
2024-05-09T17:13:10.180Z,21.27
2024-05-09T17:15:37.544Z,36.65
2024-05-09T17:18:06.428Z,50.38
2024-05-09T17:20:36.242Z,24.40
2024-05-09T17:23:06.100Z,18.08
2024-05-09T17:25:33.287Z,20.30
2024-05-09T17:28:06.396Z,16.40
2024-05-09T17:30:36.683Z,18.30
2024-05-09T17:33:06.501Z,18.42
2024-05-09T17:35:33.275Z,16.52
2024-05-09T17:38:01.510Z,17.27
2024-05-09T17:40:33.490Z,15.90
2024-05-09T17:43:03.348Z,16.92
2024-05-09T17:45:30.575Z,16.90
2024-05-09T17:47:57.662Z,17.90
2024-05-09T17:50:31.211Z,14.70
2024-05-09T17:53:01.945Z,15.93
2024-05-09T17:55:28.850Z,17.27
2024-05-09T17:57:55.616Z,18.88
2024-05-09T18:00:32.835Z,19.80
2024-05-09T18:03:06.195Z,17.93
2024-05-09T18:05:33.195Z,18.67
2024-05-09T18:08:00.067Z,18.58
2024-05-09T18:10:33.704Z,16.80
2024-05-09T18:13:05.490Z,20.60
2024-05-09T18:15:32.565Z,18.47
2024-05-09T18:17:59.562Z,19.05
2024-05-09T18:20:32.990Z,21.33
2024-05-09T18:23:07.779Z,18.10
2024-05-09T18:25:34.421Z,17.25
2024-05-09T18:28:04.200Z,18.90
2024-05-09T18:30:34.552Z,17.45
2024-05-09T18:33:03.439Z,17.73
2024-05-09T18:35:30.227Z,18.27
2024-05-09T18:37:56.879Z,17.40
2024-05-09T18:42:52.907Z,18.98
2024-05-09T18:45:19.471Z,19.92
2024-05-09T18:47:46.285Z,19.67
2024-05-09T18:50:20.421Z,20.25
2024-05-09T18:52:54.252Z,21.13
2024-05-09T18:55:20.819Z,19.90
2024-05-09T18:57:47.455Z,20.45
2024-05-09T19:00:26.628Z,18.92
2024-05-09T19:03:00.580Z,19.92
2024-05-09T19:05:27.629Z,17.77
2024-05-09T19:07:54.433Z,19.48
2024-05-09T19:10:23.031Z,20.15
2024-05-09T19:12:52.845Z,22.75
2024-05-09T19:15:19.427Z,22.60
2024-05-09T19:17:47.299Z,19.53
2024-05-09T19:20:24.811Z,19.33
2024-05-09T19:22:55.819Z,20.45
2024-05-09T19:25:22.337Z,18.92
2024-05-09T19:27:49.028Z,20.20
2024-05-09T19:30:25.065Z,22.37
2024-05-09T19:33:00.626Z,17.95
2024-05-09T19:35:27.261Z,20.88
2024-05-09T19:37:53.883Z,19.85
2024-05-09T19:40:28.611Z,23.45
2024-05-09T19:42:58.459Z,21.63
2024-05-09T19:45:25.152Z,24.27
2024-05-09T19:47:52.037Z,19.55
2024-05-09T19:50:26.683Z,22.63
2024-05-09T19:52:59.476Z,22.90
2024-05-09T19:55:26.265Z,21.73
2024-05-09T19:57:52.928Z,23.13
2024-05-09T20:00:26.174Z,23.13
2024-05-09T20:02:56.346Z,21.23
2024-05-09T20:05:23.560Z,22.70
2024-05-09T20:07:50.269Z,22.77
2024-05-09T20:10:23.688Z,23.08
2024-05-09T20:12:53.831Z,24.45
2024-05-09T20:15:20.470Z,27.05
2024-05-09T20:17:47.175Z,29.92
2024-05-09T20:20:24.503Z,27.97
2024-05-09T20:22:59.734Z,27.80
2024-05-09T20:25:26.321Z,25.98
2024-05-09T20:27:52.953Z,28.02
2024-05-09T20:30:28.884Z,27.90
2024-05-09T20:32:59.405Z,24.80
2024-05-09T20:35:26.667Z,26.48
2024-05-09T20:37:53.332Z,27.08
2024-05-09T20:40:28.258Z,26.55
2024-05-09T20:42:58.736Z,25.15
2024-05-09T20:45:25.428Z,25.20
2024-05-09T20:47:52.164Z,32.38
2024-05-09T20:50:28.028Z,35.00
2024-05-09T20:53:02.562Z,38.05
2024-05-09T20:55:30.029Z,31.95
2024-05-09T20:57:57.049Z,29.33
2024-05-09T21:00:30.291Z,29.17
2024-05-09T21:03:06.300Z,30.80
2024-05-09T21:05:33.722Z,30.98
2024-05-09T21:08:00.658Z,29.27
2024-05-09T21:10:31.541Z,32.80
2024-05-09T21:12:59.525Z,30.17
2024-05-09T21:15:26.054Z,31.17
2024-05-09T21:17:52.588Z,31.30
2024-05-09T21:20:24.286Z,33.95
2024-05-09T21:22:57.492Z,32.00
2024-05-09T21:25:24.028Z,34.47
2024-05-09T21:27:50.679Z,31.30
2024-05-09T21:30:26.745Z,33.47
2024-05-09T21:32:59.348Z,33.50
2024-05-09T21:35:25.959Z,33.03
2024-05-09T21:37:52.510Z,34.20
2024-05-09T21:40:27.232Z,32.33
2024-05-09T21:43:00.762Z,35.88
2024-05-09T21:45:27.640Z,34.17
2024-05-09T21:47:54.414Z,34.87
2024-05-09T21:50:27.639Z,36.65
2024-05-09T21:52:58.873Z,37.95
2024-05-09T21:55:25.502Z,36.72
2024-05-09T21:57:52.326Z,34.20
2024-05-09T22:00:28.656Z,35.77
2024-05-09T22:03:02.051Z,34.42
2024-05-09T22:05:28.890Z,35.50
2024-05-09T22:07:55.527Z,36.22
2024-05-09T22:10:26.535Z,33.33
2024-05-09T22:12:59.266Z,38.23
2024-05-09T22:15:25.924Z,35.05
2024-05-09T22:17:52.593Z,36.72
2024-05-09T22:20:26.024Z,35.78
2024-05-09T22:23:00.746Z,34.33
2024-05-09T22:25:29.714Z,34.57
2024-05-09T22:27:57.212Z,35.20
2024-05-09T22:30:31.122Z,34.60
2024-05-09T22:33:01.628Z,37.67
2024-05-09T22:35:28.178Z,35.70
2024-05-09T22:37:55.235Z,39.10
2024-05-09T22:40:29.511Z,36.85
2024-05-09T22:43:05.610Z,39.28
2024-05-09T22:45:32.476Z,36.78
2024-05-09T22:47:59.350Z,34.10
2024-05-09T22:50:27.107Z,36.20
2024-05-09T22:52:58.899Z,38.42
2024-05-09T22:55:25.420Z,37.88
2024-05-09T22:57:52.103Z,35.67
2024-05-09T23:00:22.037Z,37.50
2024-05-09T23:02:55.293Z,32.63
2024-05-09T23:05:22.104Z,35.00
2024-05-09T23:07:48.677Z,33.90
2024-05-09T23:10:21.332Z,33.00
2024-05-09T23:12:54.886Z,33.10
2024-05-09T23:15:21.492Z,38.40
2024-05-09T23:17:48.130Z,35.33
2024-05-09T23:20:17.799Z,33.10
2024-05-09T23:22:48.002Z,36.97
2024-05-09T23:25:14.591Z,35.58
2024-05-09T23:27:41.623Z,37.37
2024-05-09T23:30:12.148Z,34.45
2024-05-09T23:32:39.103Z,37.05
2024-05-09T23:35:06.088Z,36.15
2024-05-09T23:37:32.664Z,34.35
2024-05-09T23:39:59.272Z,32.93
2024-05-09T23:42:25.914Z,34.85
2024-05-09T23:44:53.561Z,33.47
2024-05-09T23:47:20.094Z,37.75
2024-05-09T23:49:46.704Z,34.67
2024-05-09T23:52:13.377Z,33.90
2024-05-09T23:54:40.103Z,36.85
2024-05-09T23:57:06.637Z,38.38
2024-05-09T23:59:33.185Z,35.90
